Buoy 41916

sailwx.info

Track history (hours):
 
Tides and Currents Weather Stations Pressure Air Temp Water Temp Dewpoint Dewpoint Depression Visibility Wind Speed Wind Dir Waves Ship Positions

Drifting buoy 41916

Last reported at 2013-Oct-01 12:36 UTC. Time now 2014-Jul-29 00:44 UTC.
Position N 27°30' W 080°21'.
Warning: this ship's position is months out of date.

Water temperature 24.7 ° C

Date/timePositionNaut miles runAvg speedWind from/ knotsBaromVisibWave heightAir tempDewpointWater temp
2013-Oct-01 12:36N 27°30' W 080°21'0 0.0 24.7
2013-Oct-01 10:57N 27°30' W 080°21'0 1.5 24.0
2013-Oct-01 10:52N 27°31' W 080°21'0 0.0 24.0
2013-Oct-01 10:45N 27°31' W 080°21'0 0.0 24.0
2013-Oct-01 09:35N 27°31' W 080°21'0 1.1 24.4
2013-Oct-01 09:26N 27°31' W 080°21'0 0.0
2013-Oct-01 09:16N 27°31' W 080°21'0 0.0 24.5
2013-Oct-01 09:10N 27°31' W 080°21'0 5.1
2013-Oct-01 09:08N 27°31' W 080°21'0 0.4 24.5
2013-Oct-01 08:49N 27°31' W 080°21'0 0.0 24.6
2013-Oct-01 07:48N 27°31' W 080°21'0 0.0 24.9
2013-Oct-01 07:10N 27°31' W 080°21'0 0.0 25.2
2013-Oct-01 04:09N 27°31' W 080°21'0 0.0 26.8
2013-Oct-01 03:20N 27°31' W 080°21'0 0.0 27.1
2013-Oct-01 03:12N 27°31' W 080°21'0 0.0 27.2
2013-Oct-01 03:09N 27°31' W 080°21'0 0.1 27.2
2013-Oct-01 02:26N 27°31' W 080°21'0 1.1 27.4
2013-Oct-01 02:23N 27°31' W 080°21'0 0.0 27.6
2013-Oct-01 01:42N 27°31' W 080°21'0 0.2
2013-Oct-01 01:27N 27°31' W 080°21'0 7.5 28.1
2013-Oct-01 01:24N 27°31' W 080°21'0 0.7 28.4
2013-Oct-01 00:48N 27°30' W 080°20'0 0.0 28.8
2013-Sep-30 23:51N 27°30' W 080°20'0 0.3 30.2
2013-Sep-30 22:29N 27°31' W 080°21'0 0.0 33.2
2013-Sep-30 22:08N 27°31' W 080°21'0 0.1 33.5
2013-Sep-30 21:04N 27°31' W 080°21'0 1.9 34.9
2013-Sep-30 20:54N 27°31' W 080°21'0 0.0 35.4
2013-Sep-30 19:26N 27°31' W 080°21'0 6.0 36.4
2013-Sep-30 19:22N 27°30' W 080°21'0 0.0 36.4
2013-Sep-30 18:42N 27°30' W 080°21'0 0.0 36.2
2013-Sep-30 17:03N 27°30' W 080°21'2 1.3 35.2
2013-Sep-30 15:45N 27°30' W 080°19'0 0.0 33.7
2013-Sep-30 15:10N 27°30' W 080°19'2 2.3 31.3
2013-Sep-30 14:22N 27°30' W 080°21'0 0.0 28.4
2013-Sep-30 14:12N 27°30' W 080°21'0 0.0 27.3
2013-Sep-30 14:05N 27°30' W 080°21'0 0.0 27.3
2013-Sep-30 11:32N 27°30' W 080°21'0 0.7 22.3
2013-Sep-30 11:18N 27°31' W 080°21'0 0.0 22.3
2013-Sep-30 09:52N 27°31' W 080°21'0 0.3 22.7
2013-Sep-30 09:42N 27°31' W 080°21'0 2.1 22.7
2013-Sep-30 09:39N 27°31' W 080°21'0 0.2 22.8
2013-Sep-30 08:00N 27°31' W 080°21'0 0.0 23.4
2013-Sep-30 07:24N 27°31' W 080°21'0 0.2 23.8
2013-Sep-30 05:37N 27°31' W 080°21'0 0.0 24.8
2013-Sep-30 03:21N 27°31' W 080°21'0 0.1 27.2
2013-Sep-30 02:51N 27°31' W 080°21'0 0.2 27.7
2013-Sep-30 02:04N 27°30' W 080°21'0 0.5 28.2
2013-Sep-30 01:41N 27°31' W 080°21'0 1.6 28.2
2013-Sep-30 01:38N 27°31' W 080°21'0 0.9 28.2
2013-Sep-30 01:09N 27°30' W 080°21'226.1 28.7
2013-Sep-30 01:04N 27°28' W 080°20'0 0.0 28.7
2013-Sep-30 00:21N 27°28' W 080°20'   29.2
2013-Sep-26 03:23N 27°31' W 080°21'0 0.2 27.1
2013-Sep-26 02:33N 27°31' W 080°21'0 0.0 27.7
2013-Sep-26 01:42N 27°31' W 080°21'0 0.0 28.5
2013-Sep-26 00:52N 27°31' W 080°21'0 1.6 29.5
2013-Sep-26 00:50N 27°31' W 080°21'0 0.0 29.5
2013-Sep-26 00:47N 27°31' W 080°21'0 0.0 29.7
2013-Sep-25 17:55N 27°31' W 080°21'0 0.1 32.6
2013-Sep-25 15:10N 27°31' W 080°21'0 2.6 29.0
2013-Sep-25 15:06N 27°30' W 080°21'0 4.9 29.0
2013-Sep-25 15:03N 27°31' W 080°21'0 0.0 29.0
2013-Sep-25 14:23N 27°31' W 080°21'0 0.0 26.9
2013-Sep-25 11:40N 27°31' W 080°21'0 0.4 23.1
2013-Sep-25 10:51N 27°30' W 080°21'0 0.0 23.2
2013-Sep-25 10:39N 27°30' W 080°21'0 0.0 23.2
2013-Sep-25 10:02N 27°30' W 080°21'0 1.0 23.2
2013-Sep-25 09:54N 27°31' W 080°21'0 0.0 23.3
2013-Sep-25 09:08N 27°31' W 080°21'0 0.0 23.4
2013-Sep-25 09:02N 27°31' W 080°21'0 0.0
2013-Sep-25 08:59N 27°31' W 080°21'0 1.6 23.4
2013-Sep-25 08:55N 27°31' W 080°21'0 0.2 23.5
2013-Sep-25 08:16N 27°30' W 080°21'0 3.2 23.6
2013-Sep-25 08:13N 27°30' W 080°21'0 0.0 23.6
2013-Sep-25 06:36N 27°30' W 080°21'0 0.0 24.2
2013-Sep-25 02:54N 27°31' W 080°21'0 0.2 25.7
2013-Sep-25 02:41N 27°31' W 080°21'015.8
2013-Sep-25 02:40N 27°30' W 080°21'0 0.0 25.7
2013-Sep-25 02:07N 27°30' W 080°21'0 0.1 26.0
2013-Sep-25 01:11N 27°30' W 080°21'0 0.8 26.7
2013-Sep-25 01:02N 27°30' W 080°21'0 0.1 26.7
2013-Sep-24 23:36N 27°30' W 080°21'0 0.2 28.2
2013-Sep-24 22:10N 27°30' W 080°21'0 0.0 30.2
2013-Sep-24 21:40N 27°30' W 080°21'0 0.0 31.0
2013-Sep-24 21:37N 27°30' W 080°21'0 0.2 31.0
2013-Sep-24 20:33N 27°30' W 080°21'0 0.5 33.0
2013-Sep-24 19:49N 27°30' W 080°21'0 0.4 33.5
2013-Sep-24 18:51N 27°30' W 080°21'0 0.3 33.7
2013-Sep-24 18:09N 27°30' W 080°21'0 0.1 33.1
2013-Sep-24 15:22N 27°31' W 080°21'0 2.9 29.7
2013-Sep-24 15:17N 27°31' W 080°21'0 0.0 29.7
2013-Sep-24 14:48N 27°31' W 080°21'0 0.2 28.9
2013-Sep-24 13:56N 27°31' W 080°21'0 0.0 27.0
2013-Sep-24 13:41N 27°31' W 080°21'0 0.0 26.7
2013-Sep-24 13:38N 27°31' W 080°21'0 0.0 26.7
2013-Sep-24 11:21N 27°31' W 080°21'0 0.0 24.8
2013-Sep-24 10:49N 27°31' W 080°21'0 0.1 24.9
2013-Sep-24 10:25N 27°31' W 080°21'0 0.1 25.0
2013-Sep-24 09:40N 27°31' W 080°21'0 0.3 25.1
2013-Sep-24 09:11N 27°31' W 080°21'0 2.4 25.2
2013-Sep-24 09:08N 27°31' W 080°21'0 0.1 25.2
2013-Sep-24 08:25N 27°31' W 080°21'0 0.1 25.4
2013-Sep-24 06:47N 27°31' W 080°21'0 0.0 25.7
2013-Sep-24 03:10N 27°31' W 080°21'0 0.0 26.2
2013-Sep-24 02:54N 27°31' W 080°21'0 0.3 26.2
2013-Sep-24 02:26N 27°31' W 080°21'0 0.1 26.3
2013-Sep-24 01:34N 27°31' W 080°21'0 0.8 26.4
2013-Sep-24 01:25N 27°30' W 080°21'0 0.0
2013-Sep-24 01:10N 27°30' W 080°21'0 0.2 26.6
2013-Sep-24 00:09N 27°30' W 080°21'1 0.7 27.2
2013-Sep-23 22:27N 27°31' W 080°20'134.3 28.5
2013-Sep-23 22:25N 27°30' W 080°21'1 3.6
2013-Sep-23 22:06N 27°31' W 080°20'0 4.4 28.8
2013-Sep-23 22:03N 27°31' W 080°20'1 0.5 28.8
2013-Sep-23 20:40N 27°30' W 080°21'0 1.6 29.9
2013-Sep-23 20:21N 27°31' W 080°21'0 0.0 30.1
2013-Sep-23 19:59N 27°31' W 080°21'0 0.0 30.4
2013-Sep-23 19:02N 27°31' W 080°21'0 0.2 32.1
2013-Sep-23 18:19N 27°30' W 080°21'0 0.1 33.9
2013-Sep-23 15:55N 27°30' W 080°21'0 0.4 33.5
2013-Sep-23 15:30N 27°30' W 080°21'0 0.0 32.6
2013-Sep-23 15:11N 27°30' W 080°21'0 0.2 30.7
2013-Sep-23 14:19N 27°30' W 080°21'0 0.0 28.2
2013-Sep-23 13:55N 27°30' W 080°21'0 7.2
2013-Sep-23 13:54N 27°30' W 080°21'0 2.6 26.9
2013-Sep-23 13:51N 27°31' W 080°21'0 0.0 26.9
2013-Sep-23 11:51N 27°31' W 080°21'0 0.0 25.3
2013-Sep-23 10:50N 27°31' W 080°21'0 0.2 25.6
2013-Sep-23 10:10N 27°30' W 080°21'0 0.2 26.0
2013-Sep-23 09:22N 27°30' W 080°21'0 1.1 26.3
2013-Sep-23 09:09N 27°31' W 080°21'0 1.5 26.5
2013-Sep-23 09:04N 27°31' W 080°21'0 0.0 26.5
2013-Sep-23 08:41N 27°31' W 080°21'0 4.4 26.8
2013-Sep-23 08:38N 27°31' W 080°21'0 0.1 26.8
2013-Sep-23 07:37N 27°31' W 080°21'0 0.1 27.4
2013-Sep-23 06:55N 27°31' W 080°21'0 0.0 28.0
2013-Sep-23 03:34N 27°31' W 080°21'0 3.8 30.4
2013-Sep-23 03:31N 27°30' W 080°21'0 0.1 30.4
2013-Sep-23 03:07N 27°30' W 080°21'0 0.6 30.9
2013-Sep-23 02:51N 27°31' W 080°21'0 0.4 31.1
2013-Sep-23 01:54N 27°30' W 080°21'0 3.0 32.2
2013-Sep-23 01:50N 27°31' W 080°21'0 0.7 32.2
2013-Sep-23 01:25N 27°30' W 080°21'0 2.1 32.9
2013-Sep-23 01:22N 27°30' W 080°21'0 0.0 32.9
2013-Sep-23 00:39N 27°30' W 080°21'0 0.2 34.2
2013-Sep-22 23:02N 27°31' W 080°21'0 0.1 37.1
2013-Sep-22 20:53N 27°31' W 080°21'0 4.0 37.5
2013-Sep-22 20:49N 27°31' W 080°21'0 0.1 37.5
2013-Sep-22 20:10N 27°31' W 080°21'0 0.2 36.5
2013-Sep-22 19:11N 27°30' W 080°21'0 0.3 36.0
2013-Sep-22 18:31N 27°30' W 080°21'0 3.2 36.2
2013-Sep-22 18:22N 27°30' W 080°21'0 0.0 36.2
2013-Sep-22 15:43N 27°30' W 080°21'0 0.0 30.4
2013-Sep-22 15:25N 27°30' W 080°21'0 0.0
2013-Sep-22 14:39N 27°30' W 080°21'0 0.4 28.4
2013-Sep-22 14:05N 27°31' W 080°21'0 0.0 27.6
2013-Sep-22 11:10N 27°31' W 080°21'0 0.2 23.8
2013-Sep-22 10:40N 27°30' W 080°21'0 0.1 24.0
2013-Sep-22 09:34N 27°31' W 080°21'0 0.5 24.5
2013-Sep-22 09:26N 27°30' W 080°21'0 0.2 24.5
2013-Sep-22 08:48N 27°30' W 080°21'0 0.1 24.9
2013-Sep-22 07:53N 27°31' W 080°21'0 0.2 25.4
2013-Sep-22 07:10N 27°31' W 080°21'0 2.4
2013-Sep-22 07:08N 27°30' W 080°21'0 0.0 25.7
2013-Sep-22 03:55N 27°30' W 080°21'0 0.2 28.0
2013-Sep-22 03:18N 27°30' W 080°21'0 1.3 28.5
2013-Sep-22 03:08N 27°30' W 080°21'1 0.6 28.8
2013-Sep-22 02:10N 27°30' W 080°21'0 0.3 30.3
2013-Sep-22 01:40N 27°30' W 080°21'0 1.8 30.9
2013-Sep-22 01:36N 27°30' W 080°21'1 0.3 30.9
2013-Sep-21 23:34N 27°31' W 080°21'0 0.0 29.5
2013-Sep-21 22:54N 27°31' W 080°21'0 0.1 31.4
2013-Sep-21 21:52N 27°31' W 080°21'0 0.0 34.1
2013-Sep-21 21:10N 27°31' W 080°21'762.7 34.1
2013-Sep-21 21:03N 27°23' W 080°20'0 0.0 34.1
2013-Sep-21 20:20N 27°23' W 080°20'0 0.0 33.7
2013-Sep-21 19:25N 27°23' W 080°20'0 0.0 33.3
2013-Sep-21 18:41N 27°23' W 080°20'0 0.0 36.8
2013-Sep-21 15:47N 27°23' W 080°20'0 0.0 30.1
2013-Sep-21 15:02N 27°23' W 080°20'0 0.1 28.0
2013-Sep-21 14:19N 27°23' W 080°20'011.3 26.3
2013-Sep-21 14:18N 27°23' W 080°20'7143.5 26.3
2013-Sep-21 14:15N 27°30' W 080°21'   26.3
Track history (hours):
 
Tides and Currents Weather Stations Pressure Air Temp Water Temp Dewpoint Dewpoint Depression Visibility Wind Speed Wind Dir Waves Ship Positions

Drifting buoy 41916

Last reported at 2013-Oct-01 12:36 UTC. Time now 2014-Jul-29 00:44 UTC.
Position N 27°30' W 080°21'.
Warning: this ship's position is months out of date.

Water temperature 24.7 ° C

Date/timePositionNaut miles runAvg speedWind from/ knotsBaromVisibWave heightAir tempDewpointWater temp
2013-Oct-01 12:36N 27°30' W 080°21'0 0.0 24.7
2013-Oct-01 10:57N 27°30' W 080°21'0 1.5 24.0
2013-Oct-01 10:52N 27°31' W 080°21'0 0.0 24.0
2013-Oct-01 10:45N 27°31' W 080°21'0 0.0 24.0
2013-Oct-01 09:35N 27°31' W 080°21'0 1.1 24.4
2013-Oct-01 09:26N 27°31' W 080°21'0 0.0
2013-Oct-01 09:16N 27°31' W 080°21'0 0.0 24.5
2013-Oct-01 09:10N 27°31' W 080°21'0 5.1
2013-Oct-01 09:08N 27°31' W 080°21'0 0.4 24.5
2013-Oct-01 08:49N 27°31' W 080°21'0 0.0 24.6
2013-Oct-01 07:48N 27°31' W 080°21'0 0.0 24.9
2013-Oct-01 07:10N 27°31' W 080°21'0 0.0 25.2
2013-Oct-01 04:09N 27°31' W 080°21'0 0.0 26.8
2013-Oct-01 03:20N 27°31' W 080°21'0 0.0 27.1
2013-Oct-01 03:12N 27°31' W 080°21'0 0.0 27.2
2013-Oct-01 03:09N 27°31' W 080°21'0 0.1 27.2
2013-Oct-01 02:26N 27°31' W 080°21'0 1.1 27.4
2013-Oct-01 02:23N 27°31' W 080°21'0 0.0 27.6
2013-Oct-01 01:42N 27°31' W 080°21'0 0.2
2013-Oct-01 01:27N 27°31' W 080°21'0 7.5 28.1
2013-Oct-01 01:24N 27°31' W 080°21'0 0.7 28.4
2013-Oct-01 00:48N 27°30' W 080°20'0 0.0 28.8
2013-Sep-30 23:51N 27°30' W 080°20'0 0.3 30.2
2013-Sep-30 22:29N 27°31' W 080°21'0 0.0 33.2
2013-Sep-30 22:08N 27°31' W 080°21'0 0.1 33.5
2013-Sep-30 21:04N 27°31' W 080°21'0 1.9 34.9
2013-Sep-30 20:54N 27°31' W 080°21'0 0.0 35.4
2013-Sep-30 19:26N 27°31' W 080°21'0 6.0 36.4
2013-Sep-30 19:22N 27°30' W 080°21'0 0.0 36.4
2013-Sep-30 18:42N 27°30' W 080°21'0 0.0 36.2
2013-Sep-30 17:03N 27°30' W 080°21'2 1.3 35.2
2013-Sep-30 15:45N 27°30' W 080°19'0 0.0 33.7
2013-Sep-30 15:10N 27°30' W 080°19'2 2.3 31.3
2013-Sep-30 14:22N 27°30' W 080°21'0 0.0 28.4
2013-Sep-30 14:12N 27°30' W 080°21'0 0.0 27.3
2013-Sep-30 14:05N 27°30' W 080°21'0 0.0 27.3
2013-Sep-30 11:32N 27°30' W 080°21'0 0.7 22.3
2013-Sep-30 11:18N 27°31' W 080°21'0 0.0 22.3
2013-Sep-30 09:52N 27°31' W 080°21'0 0.3 22.7
2013-Sep-30 09:42N 27°31' W 080°21'0 2.1 22.7
2013-Sep-30 09:39N 27°31' W 080°21'0 0.2 22.8
2013-Sep-30 08:00N 27°31' W 080°21'0 0.0 23.4
2013-Sep-30 07:24N 27°31' W 080°21'0 0.2 23.8
2013-Sep-30 05:37N 27°31' W 080°21'0 0.0 24.8
2013-Sep-30 03:21N 27°31' W 080°21'0 0.1 27.2
2013-Sep-30 02:51N 27°31' W 080°21'0 0.2 27.7
2013-Sep-30 02:04N 27°30' W 080°21'0 0.5 28.2
2013-Sep-30 01:41N 27°31' W 080°21'0 1.6 28.2
2013-Sep-30 01:38N 27°31' W 080°21'0 0.9 28.2
2013-Sep-30 01:09N 27°30' W 080°21'226.1 28.7
2013-Sep-30 01:04N 27°28' W 080°20'0 0.0 28.7
2013-Sep-30 00:21N 27°28' W 080°20'   29.2
2013-Sep-26 03:23N 27°31' W 080°21'0 0.2 27.1
2013-Sep-26 02:33N 27°31' W 080°21'0 0.0 27.7
2013-Sep-26 01:42N 27°31' W 080°21'0 0.0 28.5
2013-Sep-26 00:52N 27°31' W 080°21'0 1.6 29.5
2013-Sep-26 00:50N 27°31' W 080°21'0 0.0 29.5
2013-Sep-26 00:47N 27°31' W 080°21'0 0.0 29.7
2013-Sep-25 17:55N 27°31' W 080°21'0 0.1 32.6
2013-Sep-25 15:10N 27°31' W 080°21'0 2.6 29.0
2013-Sep-25 15:06N 27°30' W 080°21'0 4.9 29.0
2013-Sep-25 15:03N 27°31' W 080°21'0 0.0 29.0
2013-Sep-25 14:23N 27°31' W 080°21'0 0.0 26.9
2013-Sep-25 11:40N 27°31' W 080°21'0 0.4 23.1
2013-Sep-25 10:51N 27°30' W 080°21'0 0.0 23.2
2013-Sep-25 10:39N 27°30' W 080°21'0 0.0 23.2
2013-Sep-25 10:02N 27°30' W 080°21'0 1.0 23.2
2013-Sep-25 09:54N 27°31' W 080°21'0 0.0 23.3
2013-Sep-25 09:08N 27°31' W 080°21'0 0.0 23.4
2013-Sep-25 09:02N 27°31' W 080°21'0 0.0
2013-Sep-25 08:59N 27°31' W 080°21'0 1.6 23.4
2013-Sep-25 08:55N 27°31' W 080°21'0 0.2 23.5
2013-Sep-25 08:16N 27°30' W 080°21'0 3.2 23.6
2013-Sep-25 08:13N 27°30' W 080°21'0 0.0 23.6
2013-Sep-25 06:36N 27°30' W 080°21'0 0.0 24.2
2013-Sep-25 02:54N 27°31' W 080°21'0 0.2 25.7
2013-Sep-25 02:41N 27°31' W 080°21'015.8
2013-Sep-25 02:40N 27°30' W 080°21'0 0.0 25.7
2013-Sep-25 02:07N 27°30' W 080°21'0 0.1 26.0
2013-Sep-25 01:11N 27°30' W 080°21'0 0.8 26.7
2013-Sep-25 01:02N 27°30' W 080°21'0 0.1 26.7
2013-Sep-24 23:36N 27°30' W 080°21'0 0.2 28.2
2013-Sep-24 22:10N 27°30' W 080°21'0 0.0 30.2
2013-Sep-24 21:40N 27°30' W 080°21'0 0.0 31.0
2013-Sep-24 21:37N 27°30' W 080°21'0 0.2 31.0
2013-Sep-24 20:33N 27°30' W 080°21'0 0.5 33.0
2013-Sep-24 19:49N 27°30' W 080°21'0 0.4 33.5
2013-Sep-24 18:51N 27°30' W 080°21'0 0.3 33.7
2013-Sep-24 18:09N 27°30' W 080°21'0 0.1 33.1
2013-Sep-24 15:22N 27°31' W 080°21'0 2.9 29.7
2013-Sep-24 15:17N 27°31' W 080°21'0 0.0 29.7
2013-Sep-24 14:48N 27°31' W 080°21'0 0.2 28.9
2013-Sep-24 13:56N 27°31' W 080°21'0 0.0 27.0
2013-Sep-24 13:41N 27°31' W 080°21'0 0.0 26.7
2013-Sep-24 13:38N 27°31' W 080°21'0 0.0 26.7
2013-Sep-24 11:21N 27°31' W 080°21'0 0.0 24.8
2013-Sep-24 10:49N 27°31' W 080°21'0 0.1 24.9
2013-Sep-24 10:25N 27°31' W 080°21'0 0.1 25.0
2013-Sep-24 09:40N 27°31' W 080°21'0 0.3 25.1
2013-Sep-24 09:11N 27°31' W 080°21'0 2.4 25.2
2013-Sep-24 09:08N 27°31' W 080°21'0 0.1 25.2
2013-Sep-24 08:25N 27°31' W 080°21'0 0.1 25.4
2013-Sep-24 06:47N 27°31' W 080°21'0 0.0 25.7
2013-Sep-24 03:10N 27°31' W 080°21'0 0.0 26.2
2013-Sep-24 02:54N 27°31' W 080°21'0 0.3 26.2
2013-Sep-24 02:26N 27°31' W 080°21'0 0.1 26.3
2013-Sep-24 01:34N 27°31' W 080°21'0 0.8 26.4
2013-Sep-24 01:25N 27°30' W 080°21'0 0.0
2013-Sep-24 01:10N 27°30' W 080°21'0 0.2 26.6
2013-Sep-24 00:09N 27°30' W 080°21'1 0.7 27.2
2013-Sep-23 22:27N 27°31' W 080°20'134.3 28.5
2013-Sep-23 22:25N 27°30' W 080°21'1 3.6
2013-Sep-23 22:06N 27°31' W 080°20'0 4.4 28.8
2013-Sep-23 22:03N 27°31' W 080°20'1 0.5 28.8
2013-Sep-23 20:40N 27°30' W 080°21'0 1.6 29.9
2013-Sep-23 20:21N 27°31' W 080°21'0 0.0 30.1
2013-Sep-23 19:59N 27°31' W 080°21'0 0.0 30.4
2013-Sep-23 19:02N 27°31' W 080°21'0 0.2 32.1
2013-Sep-23 18:19N 27°30' W 080°21'0 0.1 33.9
2013-Sep-23 15:55N 27°30' W 080°21'0 0.4 33.5
2013-Sep-23 15:30N 27°30' W 080°21'0 0.0 32.6
2013-Sep-23 15:11N 27°30' W 080°21'0 0.2 30.7
2013-Sep-23 14:19N 27°30' W 080°21'0 0.0 28.2
2013-Sep-23 13:55N 27°30' W 080°21'0 7.2
2013-Sep-23 13:54N 27°30' W 080°21'0 2.6 26.9
2013-Sep-23 13:51N 27°31' W 080°21'0 0.0 26.9
2013-Sep-23 11:51N 27°31' W 080°21'0 0.0 25.3
2013-Sep-23 10:50N 27°31' W 080°21'0 0.2 25.6
2013-Sep-23 10:10N 27°30' W 080°21'0 0.2 26.0
2013-Sep-23 09:22N 27°30' W 080°21'0 1.1 26.3
2013-Sep-23 09:09N 27°31' W 080°21'0 1.5 26.5
2013-Sep-23 09:04N 27°31' W 080°21'0 0.0 26.5
2013-Sep-23 08:41N 27°31' W 080°21'0 4.4 26.8
2013-Sep-23 08:38N 27°31' W 080°21'0 0.1 26.8
2013-Sep-23 07:37N 27°31' W 080°21'0 0.1 27.4
2013-Sep-23 06:55N 27°31' W 080°21'0 0.0 28.0
2013-Sep-23 03:34N 27°31' W 080°21'0 3.8 30.4
2013-Sep-23 03:31N 27°30' W 080°21'0 0.1 30.4
2013-Sep-23 03:07N 27°30' W 080°21'0 0.6 30.9
2013-Sep-23 02:51N 27°31' W 080°21'0 0.4 31.1
2013-Sep-23 01:54N 27°30' W 080°21'0 3.0 32.2
2013-Sep-23 01:50N 27°31' W 080°21'0 0.7 32.2
2013-Sep-23 01:25N 27°30' W 080°21'0 2.1 32.9
2013-Sep-23 01:22N 27°30' W 080°21'0 0.0 32.9
2013-Sep-23 00:39N 27°30' W 080°21'0 0.2 34.2
2013-Sep-22 23:02N 27°31' W 080°21'0 0.1 37.1
2013-Sep-22 20:53N 27°31' W 080°21'0 4.0 37.5
2013-Sep-22 20:49N 27°31' W 080°21'0 0.1 37.5
2013-Sep-22 20:10N 27°31' W 080°21'0 0.2 36.5
2013-Sep-22 19:11N 27°30' W 080°21'0 0.3 36.0
2013-Sep-22 18:31N 27°30' W 080°21'0 3.2 36.2
2013-Sep-22 18:22N 27°30' W 080°21'0 0.0 36.2
2013-Sep-22 15:43N 27°30' W 080°21'0 0.0 30.4
2013-Sep-22 15:25N 27°30' W 080°21'0 0.0
2013-Sep-22 14:39N 27°30' W 080°21'0 0.4 28.4
2013-Sep-22 14:05N 27°31' W 080°21'0 0.0 27.6
2013-Sep-22 11:10N 27°31' W 080°21'0 0.2 23.8
2013-Sep-22 10:40N 27°30' W 080°21'0 0.1 24.0
2013-Sep-22 09:34N 27°31' W 080°21'0 0.5 24.5
2013-Sep-22 09:26N 27°30' W 080°21'0 0.2 24.5
2013-Sep-22 08:48N 27°30' W 080°21'0 0.1 24.9
2013-Sep-22 07:53N 27°31' W 080°21'0 0.2 25.4
2013-Sep-22 07:10N 27°31' W 080°21'0 2.4
2013-Sep-22 07:08N 27°30' W 080°21'0 0.0 25.7
2013-Sep-22 03:55N 27°30' W 080°21'0 0.2 28.0
2013-Sep-22 03:18N 27°30' W 080°21'0 1.3 28.5
2013-Sep-22 03:08N 27°30' W 080°21'1 0.6 28.8
2013-Sep-22 02:10N 27°30' W 080°21'0 0.3 30.3
2013-Sep-22 01:40N 27°30' W 080°21'0 1.8 30.9
2013-Sep-22 01:36N 27°30' W 080°21'1 0.3 30.9
2013-Sep-21 23:34N 27°31' W 080°21'0 0.0 29.5
2013-Sep-21 22:54N 27°31' W 080°21'0 0.1 31.4
2013-Sep-21 21:52N 27°31' W 080°21'0 0.0 34.1
2013-Sep-21 21:10N 27°31' W 080°21'762.7 34.1
2013-Sep-21 21:03N 27°23' W 080°20'0 0.0 34.1
2013-Sep-21 20:20N 27°23' W 080°20'0 0.0 33.7
2013-Sep-21 19:25N 27°23' W 080°20'0 0.0 33.3
2013-Sep-21 18:41N 27°23' W 080°20'0 0.0 36.8
2013-Sep-21 15:47N 27°23' W 080°20'0 0.0 30.1
2013-Sep-21 15:02N 27°23' W 080°20'0 0.1 28.0
2013-Sep-21 14:19N 27°23' W 080°20'011.3 26.3
2013-Sep-21 14:18N 27°23' W 080°20'7143.5 26.3
2013-Sep-21 14:15N 27°30' W 080°21'   26.3

Dump ship's entire track history